Ana Sayfa
METAR-TAF:

METAR-TAF

Havaalanları :

Taiyuan, Çin

Enlem: 37-47N, Boylam: 112-33E, yükseklik: 779 m

Güncel hava durumu gözlemi

Rapor saat 13:00 UTC de 27 dakika önce yapıldı.
Rüzgar batı/kuzeybatıdan 6 kt
Sıcaklık 0°C
Nem 43%
Basınç 1022 hPa
Görüş mesafesi 10 km veya daha fazla
1500 m altında bulut yok ve kümülonimbus yok

METAR: ZBYN 191300Z 29003MPS CAVOK M00/M11 Q1022 NOSIG

Saat: 21:27 (13:27 UTC)

Tahmin

Rapor saat 09:15 UTC de 4 saat ve 12 dakika önce yapıldı.
Ayın 19'si saat 12 UTC'den ayın 20'si saat 12 UTC'ye kadar geçerli Tahmin
Rüzgar batı/kuzeybatıdan 8 kt
Görüş mesafesi: 6000 m

TAF: ZBYN 190915Z 1912/2012 30004MPS 6000 NSC TX04/2007Z TNM11/1922Z

4.000'den fazla havaalanı için hava durumu gözlemleri ve tahminleri (METAR ve TAF raporları).

Kullanılabilir istasyonlar harita üzerinde sarı ve kırmızı noktalarla gösterilir.

İstasyonun adını görmek için fareyi noktanın üzerinde gezdirin.

Sonrasında hava gözlem ve tahminlerini görmek için tıklayın.

Haritayı değiştirmek için: yaklaştırmak için siyah artı işaretli yeşil düğmeye ve uzaklaştırmak için de eksi işaretli düğmeye hızla tıklayın; bitişik haritalar için yeşil okları kullanın.


METAR-TAF: